Time;durP1;ratioP1;P1;durP2;ratioP2;P2;SDS_P1;SDS_P2;PMS_P1;PMS_P2;Temp;Humidity;BMP_temperature;BMP_pressure;BME280_temperature;BME280_humidity;BME280_pressure;Samples;Min_cycle;Max_cycle;Signal;HPM_P1;HPM_P2
2023/03/25 00:00:15;;;;;;;1.70;1.20;;;16.90;61.10;18.10;99641.00;;;;5013733;28;20682;-46
2023/03/25 00:02:43;;;;;;;1.60;1.37;;;16.90;61.10;18.10;99641.00;;;;5013355;28;20214;-46
2023/03/25 00:05:10;;;;;;;1.93;1.40;;;16.80;61.10;18.10;99635.00;;;;5013563;28;20204;-46
2023/03/25 00:07:36;;;;;;;1.50;1.17;;;16.90;61.20;18.10;99652.00;;;;5013799;28;20193;-46
2023/03/25 00:10:02;;;;;;;1.33;1.20;;;16.80;61.10;18.00;99646.00;;;;5013302;28;20340;-46
2023/03/25 00:12:28;;;;;;;1.20;1.00;;;16.80;60.90;18.00;99642.00;;;;5013358;28;20666;-46
2023/03/25 00:14:53;;;;;;;1.53;1.40;;;16.80;60.80;18.00;99636.00;;;;5013859;28;20184;-47
2023/03/25 00:17:21;;;;;;;1.37;1.20;;;16.70;60.80;18.00;99634.00;;;;5013272;28;20182;-46
2023/03/25 00:19:49;;;;;;;2.30;1.20;;;16.80;60.80;18.00;99631.00;;;;5013332;28;20290;-45
2023/03/25 00:22:16;;;;;;;1.70;1.43;;;16.70;60.70;18.00;99625.00;;;;5013265;28;20250;-46
2023/03/25 00:24:42;;;;;;;2.47;1.67;;;16.80;60.90;18.00;99630.00;;;;5013033;28;20195;-45
2023/03/25 00:27:07;;;;;;;2.37;1.37;;;16.80;60.70;18.00;99634.00;;;;5012993;28;20187;-47
2023/03/25 00:29:33;;;;;;;1.80;1.40;;;16.70;60.80;17.90;99632.00;;;;5012971;28;20656;-46
2023/03/25 00:32:00;;;;;;;1.50;1.40;;;16.60;60.50;17.90;99618.00;;;;5010091;28;20235;-46
2023/03/25 00:34:26;;;;;;;1.43;1.23;;;16.60;60.40;17.90;99622.00;;;;5011485;28;20632;-46
2023/03/25 00:36:52;;;;;;;1.50;1.40;;;16.60;60.40;17.80;99618.00;;;;5011639;28;20318;-47
2023/03/25 00:39:18;;;;;;;1.77;1.60;;;16.60;60.40;17.90;99637.00;;;;5011724;28;20213;-46
2023/03/25 00:41:43;;;;;;;2.37;1.40;;;16.60;60.30;17.80;99624.00;;;;5011419;28;20666;-46
2023/03/25 00:44:11;;;;;;;1.50;1.33;;;16.60;60.50;17.80;99630.00;;;;5011848;28;20264;-46
2023/03/25 00:46:37;;;;;;;3.30;1.80;;;16.60;60.30;17.80;99626.00;;;;5010543;28;20193;-46
2023/03/25 00:49:02;;;;;;;2.87;1.93;;;16.50;60.20;17.80;99614.00;;;;5011807;28;20180;-47
2023/03/25 00:51:30;;;;;;;2.13;1.90;;;16.50;60.10;17.80;99616.00;;;;5011634;28;20287;-46
2023/03/25 00:53:59;;;;;;;2.47;2.00;;;16.50;60.10;17.70;99621.00;;;;5011247;28;20205;-46
2023/03/25 00:56:25;;;;;;;2.80;2.27;;;16.50;60.00;17.50;99622.00;;;;5011683;28;20196;-47
2023/03/25 00:58:50;;;;;;;4.43;2.60;;;16.50;59.80;17.70;99623.00;;;;5015226;28;20176;-46
2023/03/25 01:01:22;;;;;;;2.70;2.23;;;16.50;60.00;17.70;99617.00;;;;5017045;28;20220;-45
2023/03/25 01:03:48;;;;;;;4.10;2.53;;;16.40;59.80;17.70;99637.00;;;;5011372;28;20184;-46
2023/03/25 01:06:15;;;;;;;3.40;2.13;;;16.40;59.70;17.60;99626.00;;;;5013078;28;20176;-46
2023/03/25 01:08:42;;;;;;;3.37;2.40;;;16.40;59.80;17.60;99615.00;;;;5012751;28;20262;-46
2023/03/25 01:11:20;;;;;;;3.00;2.33;;;16.40;59.20;17.60;99619.00;;;;5012591;28;20199;-48
2023/03/25 01:13:45;;;;;;;3.33;2.30;;;16.30;59.30;17.60;99615.00;;;;5010907;28;20185;-46
2023/03/25 01:16:11;;;;;;;3.97;2.30;;;16.30;59.40;17.50;99610.00;;;;5010804;28;20190;-46
2023/03/25 01:18:37;;;;;;;2.97;2.10;;;16.30;59.40;17.50;99613.00;;;;5010802;28;20568;-47
2023/03/25 01:21:06;;;;;;;2.83;1.70;;;16.30;60.00;17.50;99628.00;;;;5010606;28;20698;-47
2023/03/25 01:23:33;;;;;;;2.23;1.80;;;16.30;58.90;17.50;99616.00;;;;5010601;28;20574;-46
2023/03/25 01:25:59;;;;;;;2.90;1.90;;;16.20;59.10;17.50;99610.00;;;;5010832;28;20564;-46
2023/03/25 01:28:26;;;;;;;4.00;1.90;;;16.20;59.00;17.40;99611.00;;;;5011157;28;20179;-46
2023/03/25 01:31:01;;;;;;;4.30;2.00;;;16.20;59.00;17.40;99620.00;;;;5010483;28;20339;-46
2023/03/25 01:33:27;;;;;;;2.80;1.80;;;16.20;58.50;17.40;99614.00;;;;5010529;28;20213;-45
2023/03/25 01:35:53;;;;;;;4.63;2.17;;;16.10;58.20;17.40;99609.00;;;;5010560;28;20651;-46
2023/03/25 01:38:19;;;;;;;3.87;1.87;;;16.20;58.60;17.40;99627.00;;;;5010539;28;20262;-46
2023/03/25 01:40:48;;;;;;;2.37;1.70;;;16.10;58.40;17.40;99606.00;;;;5010527;28;20283;-47
2023/03/25 01:43:14;;;;;;;3.17;1.90;;;16.10;58.50;17.30;99605.00;;;;5008833;28;20214;-46
2023/03/25 01:45:39;;;;;;;1.90;1.70;;;16.10;58.50;17.30;99605.00;;;;5010332;28;20351;-46
2023/03/25 01:48:10;;;;;;;2.53;1.60;;;16.10;58.50;17.30;99618.00;;;;5010350;28;20250;-47
2023/03/25 01:50:37;;;;;;;3.23;1.67;;;16.10;58.60;17.30;99611.00;;;;5008881;28;20208;-46
2023/03/25 01:53:04;;;;;;;2.43;1.80;;;16.00;58.50;17.30;99612.00;;;;5008976;28;20180;-47
2023/03/25 01:55:32;;;;;;;2.13;1.67;;;16.00;58.40;17.30;99606.00;;;;5009017;28;20183;-46
2023/03/25 01:57:58;;;;;;;1.80;1.50;;;16.00;58.40;17.30;99600.00;;;;5008783;28;20238;-46
2023/03/25 02:00:25;;;;;;;2.33;1.77;;;16.10;58.60;17.30;99586.00;;;;5010073;28;20199;-46
2023/03/25 02:02:51;;;;;;;3.07;1.47;;;16.10;58.50;17.30;99580.00;;;;5009956;28;20267;-46
2023/03/25 02:05:37;;;;;;;2.40;1.67;;;16.10;58.50;17.30;99590.00;;;;5008755;28;20212;-47
2023/03/25 02:08:04;;;;;;;2.47;1.70;;;16.00;58.40;17.20;99611.00;;;;5008807;28;20225;-47
2023/03/25 02:10:30;;;;;;;2.37;1.43;;;16.00;58.40;17.20;99586.00;;;;5009839;28;20201;-46
2023/03/25 02:12:56;;;;;;;2.10;1.70;;;16.00;58.40;17.20;99590.00;;;;5011573;28;20184;-46
2023/03/25 02:15:22;;;;;;;2.87;1.67;;;16.00;58.40;17.20;99586.00;;;;5016185;28;20626;-45
2023/03/25 02:18:34;;;;;;;2.03;1.53;;;16.00;58.40;17.20;99593.00;;;;5015960;28;20180;-46
2023/03/25 02:21:26;;;;;;;2.10;1.60;;;16.00;58.50;17.20;99588.00;;;;5024924;28;20345;-47
2023/03/25 02:24:13;;;;;;;2.37;1.50;;;15.90;58.30;17.10;99585.00;;;;5009356;28;20203;-47
2023/03/25 02:27:27;;;;;;;2.10;1.53;;;16.00;58.50;17.10;99589.00;;;;5008379;28;20260;-46
2023/03/25 02:30:20;;;;;;;2.20;1.70;;;16.00;58.40;17.10;99595.00;;;;5007757;28;20542;-46
2023/03/25 02:33:23;;;;;;;1.50;1.40;;;15.90;58.30;17.10;99592.00;;;;5009520;28;20175;-46
2023/03/25 02:35:59;;;;;;;2.00;1.40;;;16.00;58.40;17.10;99590.00;;;;5009398;28;20665;-46
2023/03/25 02:39:33;;;;;;;2.20;1.70;;;16.00;58.40;17.10;99592.00;;;;5010302;28;20171;-46
2023/03/25 02:42:37;;;;;;;1.77;1.40;;;15.90;58.30;17.00;99574.00;;;;5009461;28;20290;-46
2023/03/25 02:45:26;;;;;;;2.70;1.47;;;15.90;58.30;17.00;99595.00;;;;5007857;28;20183;-46
2023/03/25 02:48:02;;;;;;;1.67;1.43;;;15.90;58.30;17.00;99584.00;;;;5007840;28;20186;-49
2023/03/25 02:50:42;;;;;;;1.93;1.37;;;15.90;58.30;17.00;99590.00;;;;5007667;28;20230;-46
2023/03/25 02:53:12;;;;;;;2.10;1.30;;;15.90;58.30;17.00;99599.00;;;;5007667;28;20189;-45
2023/03/25 02:55:40;;;;;;;3.23;1.50;;;15.90;58.40;17.00;99592.00;;;;5008004;28;20198;-45
2023/03/25 02:58:08;;;;;;;1.40;1.20;;;15.90;58.50;17.00;99572.00;;;;5007814;28;20647;-46
2023/03/25 03:00:37;;;;;;;1.50;1.07;;;15.90;58.50;17.00;99598.00;;;;5007790;28;20258;-45
2023/03/25 03:03:04;;;;;;;1.77;1.10;;;15.90;58.40;17.00;99594.00;;;;5007475;28;20207;-46
2023/03/25 03:05:37;;;;;;;2.10;1.50;;;15.90;58.50;17.00;99595.00;;;;5009171;28;20175;-46
2023/03/25 03:08:35;;;;;;;1.50;1.17;;;15.90;58.60;17.00;99589.00;;;;5007826;28;20195;-47
2023/03/25 03:11:16;;;;;;;2.80;1.40;;;15.80;58.60;17.00;99591.00;;;;5007843;28;20302;-46
2023/03/25 03:14:22;;;;;;;2.53;1.53;;;15.90;58.70;17.00;99587.00;;;;5008574;28;20202;-45
2023/03/25 03:17:17;;;;;;;1.97;1.40;;;15.90;58.80;17.00;99574.00;;;;5007951;28;20258;-46
2023/03/25 03:19:55;;;;;;;1.53;1.43;;;15.90;59.60;17.10;99582.00;;;;5007317;28;20262;-47
2023/03/25 03:22:51;;;;;;;1.57;1.27;;;15.90;59.00;17.10;99571.00;;;;5007514;28;20835;-47
2023/03/25 03:25:45;;;;;;;1.03;1.00;;;15.90;59.00;17.10;99575.00;;;;5007896;28;20192;-46
2023/03/25 03:28:33;;;;;;;1.97;1.30;;;15.90;58.90;17.10;99586.00;;;;5007885;28;20528;-45
2023/03/25 03:31:26;;;;;;;1.30;1.20;;;15.90;58.90;17.00;99574.00;;;;5007213;28;20200;-46
2023/03/25 03:33:56;;;;;;;1.67;1.20;;;15.90;58.90;17.00;99578.00;;;;5007066;28;20203;-47
2023/03/25 03:36:29;;;;;;;1.63;1.30;;;15.80;58.80;17.00;99581.00;;;;5007266;28;20191;-46
2023/03/25 03:39:06;;;;;;;2.13;1.60;;;15.80;58.90;17.00;99578.00;;;;5007605;28;20183;-46
2023/03/25 03:41:33;;;;;;;1.70;1.37;;;15.90;58.90;17.00;99569.00;;;;5007395;28;20242;-46
2023/03/25 03:44:20;;;;;;;1.80;1.40;;;15.80;58.80;17.00;99575.00;;;;5007128;28;20236;-46
2023/03/25 03:46:57;;;;;;;1.40;1.20;;;15.80;58.80;17.00;99586.00;;;;5007314;28;20183;-46
2023/03/25 03:49:28;;;;;;;1.37;1.13;;;15.80;58.80;17.00;99571.00;;;;5007299;28;20828;-47
2023/03/25 03:52:02;;;;;;;2.20;1.40;;;15.70;58.60;16.90;99596.00;;;;5007018;28;20184;-46
2023/03/25 03:54:32;;;;;;;2.77;1.67;;;15.70;58.70;16.90;99605.00;;;;5007320;28;20185;-46
2023/03/25 03:57:06;;;;;;;2.67;1.60;;;15.60;58.60;16.90;99586.00;;;;5006853;28;20567;-46
2023/03/25 03:59:40;;;;;;;1.73;1.40;;;15.70;58.70;16.90;99596.00;;;;5007124;28;20187;-47
2023/03/25 04:02:22;;;;;;;1.60;1.40;;;15.60;58.60;16.80;99596.00;;;;5008152;28;20203;-46
2023/03/25 04:04:48;;;;;;;1.90;1.53;;;15.60;58.60;16.80;99590.00;;;;5006995;28;20180;-46
2023/03/25 04:07:19;;;;;;;2.60;1.53;;;15.60;58.50;16.80;99593.00;;;;5008251;28;20203;-46
2023/03/25 04:09:56;;;;;;;3.47;1.70;;;15.60;58.60;16.80;99593.00;;;;5006684;28;20184;-46
2023/03/25 04:12:26;;;;;;;2.70;1.90;;;15.60;58.60;16.80;99604.00;;;;5011056;28;20281;-46
2023/03/25 04:14:53;;;;;;;1.57;1.47;;;15.60;58.50;16.80;99596.00;;;;5011750;28;20192;-46
2023/03/25 04:17:19;;;;;;;3.10;1.73;;;15.60;58.60;16.80;99596.00;;;;5007789;28;20299;-46
2023/03/25 04:19:47;;;;;;;2.77;1.70;;;15.60;58.70;16.80;99599.00;;;;5008153;28;20180;-46
2023/03/25 04:22:14;;;;;;;2.30;1.83;;;15.60;58.70;16.70;99603.00;;;;5008239;28;20748;-46
2023/03/25 04:24:40;;;;;;;2.43;1.70;;;15.60;58.60;16.80;99597.00;;;;5007172;28;20241;-46
2023/03/25 04:27:08;;;;;;;3.87;1.60;;;15.60;58.60;16.80;99596.00;;;;5005425;28;20179;-46
2023/03/25 04:29:34;;;;;;;2.50;1.70;;;15.60;58.60;16.80;99600.00;;;;5007245;28;20176;-46
2023/03/25 04:32:00;;;;;;;3.13;2.07;;;15.60;58.50;16.70;99574.00;;;;5008188;28;20678;-47
2023/03/25 04:34:26;;;;;;;3.17;1.90;;;15.50;58.50;16.70;99597.00;;;;5007720;28;20206;-46
2023/03/25 04:36:53;;;;;;;2.90;1.97;;;15.50;58.50;16.70;99597.00;;;;5009940;28;20667;-45
2023/03/25 04:39:22;;;;;;;3.70;1.90;;;15.60;58.60;16.70;99596.00;;;;5009169;28;20187;-46
2023/03/25 04:41:52;;;;;;;4.87;1.83;;;15.60;58.60;16.70;99601.00;;;;5007696;28;20281;-46
2023/03/25 04:44:20;;;;;;;3.30;1.80;;;15.50;58.00;16.70;99586.00;;;;5011405;28;20201;-47
2023/03/25 04:46:45;;;;;;;4.50;1.97;;;15.50;57.30;16.60;99596.00;;;;5011362;28;20180;-46
2023/03/25 04:49:20;;;;;;;2.97;1.83;;;15.50;57.40;16.60;99584.00;;;;5010003;28;20210;-46
2023/03/25 04:51:50;;;;;;;3.83;2.10;;;15.40;57.20;16.50;99610.00;;;;5011307;28;20207;-46
2023/03/25 04:54:19;;;;;;;3.17;2.00;;;15.50;57.10;16.50;99597.00;;;;5011494;28;20207;-46
2023/03/25 04:56:49;;;;;;;4.13;1.87;;;15.30;56.70;16.50;99587.00;;;;5011521;28;20219;-46
2023/03/25 04:59:17;;;;;;;3.53;2.00;;;15.30;56.50;16.40;99593.00;;;;5011208;28;20712;-46
2023/03/25 05:01:44;;;;;;;3.03;1.93;;;15.30;56.30;16.40;99583.00;;;;5010934;28;20294;-46
2023/03/25 05:04:12;;;;;;;3.30;1.40;;;15.20;56.20;16.40;99588.00;;;;5010109;28;20203;-46
2023/03/25 05:06:47;;;;;;;2.13;1.60;;;15.30;56.00;16.30;99582.00;;;;5011394;28;20207;-46
2023/03/25 05:09:15;;;;;;;2.97;1.73;;;15.20;56.00;16.30;99574.00;;;;5010901;28;20210;-46
2023/03/25 05:11:41;;;;;;;3.00;1.80;;;15.20;55.90;16.30;99571.00;;;;5011012;28;20265;-47
2023/03/25 05:14:08;;;;;;;6.03;2.20;;;15.20;55.80;16.20;99574.00;;;;5009865;28;20178;-48
2023/03/25 05:16:34;;;;;;;3.43;1.90;;;15.20;55.80;16.20;99585.00;;;;5011179;28;20262;-46
2023/03/25 05:19:02;;;;;;;4.13;1.90;;;15.20;55.60;16.20;99566.00;;;;5011083;28;20263;-47
2023/03/25 05:21:30;;;;;;;3.83;1.87;;;15.20;55.70;16.20;99577.00;;;;5010936;28;20214;-47
2023/03/25 05:23:57;;;;;;;3.07;1.77;;;15.10;56.30;16.10;99578.00;;;;5010776;28;20210;-47
2023/03/25 05:26:23;;;;;;;3.30;1.90;;;15.10;55.50;16.10;99579.00;;;;5011078;28;20218;-47
2023/03/25 05:28:50;;;;;;;4.37;1.80;;;15.10;55.40;16.10;99588.00;;;;5011424;28;20698;-47
2023/03/25 05:31:17;;;;;;;3.70;1.63;;;15.10;55.40;16.10;99595.00;;;;5012084;28;20208;-48
2023/03/25 05:33:42;;;;;;;3.73;1.80;;;15.10;55.30;16.00;99604.00;;;;5012377;28;20562;-46
2023/03/25 05:36:12;;;;;;;4.27;2.00;;;15.00;55.10;16.00;99597.00;;;;5011858;28;20179;-46
2023/03/25 05:38:40;;;;;;;5.23;2.00;;;15.00;55.10;16.00;99593.00;;;;5011887;28;20187;-46
2023/03/25 05:41:09;;;;;;;3.03;1.90;;;15.00;55.30;16.00;99599.00;;;;5011709;28;20326;-46
2023/03/25 05:43:36;;;;;;;3.50;1.93;;;15.00;55.40;16.00;99599.00;;;;5015873;28;20180;-46
2023/03/25 05:46:04;;;;;;;2.80;1.77;;;15.00;55.70;16.00;99600.00;;;;5015783;28;20271;-45
2023/03/25 05:48:31;;;;;;;4.33;1.97;;;15.00;56.00;16.00;99609.00;;;;5011866;28;20176;-46
2023/03/25 05:51:00;;;;;;;2.60;1.60;;;15.00;56.20;16.00;99608.00;;;;5011240;28;20218;-46
2023/03/25 05:53:26;;;;;;;3.50;1.77;;;15.00;56.00;16.00;99596.00;;;;5003488;28;20184;-47
2023/03/25 05:55:52;;;;;;;4.77;2.00;;;15.00;56.10;15.90;99596.00;;;;5008419;28;20202;-46
2023/03/25 05:58:18;;;;;;;3.63;1.93;;;15.00;56.40;16.00;99593.00;;;;5003492;28;20188;-46
2023/03/25 06:00:45;;;;;;;3.43;1.70;;;14.90;56.60;16.00;99607.00;;;;5009650;28;20405;-47
2023/03/25 06:03:11;;;;;;;2.73;1.67;;;14.90;56.80;16.00;99605.00;;;;5012628;28;20278;-46
2023/03/25 06:05:40;;;;;;;2.87;1.80;;;14.90;56.90;16.10;99603.00;;;;5012831;28;20607;-46
2023/03/25 06:08:06;;;;;;;4.33;1.80;;;14.90;57.10;16.10;99600.00;;;;5012075;28;20203;-46
2023/03/25 06:10:32;;;;;;;3.20;1.50;;;15.00;57.10;16.10;99599.00;;;;5009754;28;20226;-46
2023/03/25 06:12:58;;;;;;;2.00;1.60;;;15.00;57.20;16.10;99599.00;;;;5009992;28;20171;-46
2023/03/25 06:15:32;;;;;;;5.37;1.97;;;15.00;57.30;16.10;99607.00;;;;5010735;28;20689;-46
2023/03/25 06:17:58;;;;;;;3.03;1.67;;;15.00;57.40;16.20;99599.00;;;;5011062;28;20265;-46
2023/03/25 06:20:24;;;;;;;3.27;1.77;;;15.00;57.50;16.20;99608.00;;;;5010584;28;20690;-46
2023/03/25 06:22:50;;;;;;;2.67;1.70;;;15.10;57.70;16.20;99600.00;;;;5013648;28;20199;-46
2023/03/25 06:25:19;;;;;;;3.40;1.60;;;15.10;57.60;16.20;99605.00;;;;5016767;28;20191;-46
2023/03/25 06:27:47;;;;;;;2.27;1.57;;;15.10;57.70;16.20;99595.00;;;;5016216;28;20171;-46
2023/03/25 06:30:15;;;;;;;2.63;1.60;;;15.10;57.70;16.20;99598.00;;;;5012995;28;20745;-47
2023/03/25 06:32:41;;;;;;;3.03;1.60;;;15.10;57.80;16.20;99608.00;;;;5010837;28;20188;-46
2023/03/25 06:35:08;;;;;;;2.20;1.50;;;15.10;57.80;16.20;99605.00;;;;5010469;28;20245;-46
2023/03/25 06:37:34;;;;;;;2.10;1.80;;;15.10;57.90;16.20;99595.00;;;;5010006;28;20221;-46
2023/03/25 06:40:00;;;;;;;2.63;1.60;;;15.10;57.90;16.20;99592.00;;;;5010248;28;20199;-46
2023/03/25 06:42:26;;;;;;;1.73;1.33;;;15.10;58.00;16.20;99599.00;;;;5009569;28;20199;-46
2023/03/25 06:44:52;;;;;;;2.33;1.60;;;15.10;58.10;16.20;99616.00;;;;5008840;28;20171;-46
2023/03/25 06:47:18;;;;;;;3.03;1.60;;;15.10;58.10;16.20;99612.00;;;;5010377;28;20184;-47
2023/03/25 06:49:44;;;;;;;2.13;1.60;;;15.10;58.20;16.30;99622.00;;;;5010093;28;20175;-46
2023/03/25 06:52:10;;;;;;;2.43;1.47;;;15.10;58.20;16.30;99620.00;;;;5010054;28;20202;-46
2023/03/25 06:54:37;;;;;;;2.53;1.57;;;15.10;58.30;16.30;99605.00;;;;5009958;28;20701;-47
2023/03/25 06:57:03;;;;;;;1.70;1.60;;;15.10;58.30;16.00;99608.00;;;;5009604;28;20178;-47
2023/03/25 06:59:29;;;;;;;1.90;1.70;;;15.10;58.30;16.30;99610.00;;;;5009872;28;20186;-47
2023/03/25 07:01:54;;;;;;;1.60;1.40;;;15.10;58.40;16.30;99617.00;;;;5009941;28;20207;-46
2023/03/25 07:04:21;;;;;;;2.33;1.70;;;15.10;58.50;16.30;99617.00;;;;5010031;28;20176;-47
2023/03/25 07:06:46;;;;;;;1.80;1.57;;;15.20;58.50;16.30;99620.00;;;;5009476;28;20656;-46
2023/03/25 07:09:12;;;;;;;1.73;1.50;;;15.20;58.60;16.30;99612.00;;;;5009305;28;20253;-46
2023/03/25 07:11:38;;;;;;;1.87;1.50;;;15.20;58.60;16.30;99637.00;;;;5010196;28;20239;-46
2023/03/25 07:14:03;;;;;;;1.37;1.27;;;15.10;58.60;16.30;99624.00;;;;5010484;28;20259;-46
2023/03/25 07:16:29;;;;;;;1.57;1.47;;;15.10;58.60;16.30;99620.00;;;;5010862;28;20202;-46
2023/03/25 07:18:56;;;;;;;1.60;1.50;;;15.20;58.70;16.30;99618.00;;;;5009706;28;20789;-47
2023/03/25 07:21:21;;;;;;;2.17;1.40;;;15.10;58.70;16.30;99627.00;;;;5009603;28;20290;-46
2023/03/25 07:23:47;;;;;;;2.93;1.83;;;15.10;58.70;16.30;99626.00;;;;5009082;28;20539;-46
2023/03/25 07:26:13;;;;;;;1.63;1.23;;;15.10;58.80;16.30;99631.00;;;;5009375;28;20168;-50
2023/03/25 07:28:39;;;;;;;2.40;1.43;;;15.20;58.80;16.30;99638.00;;;;5009556;28;20666;-46
2023/03/25 07:31:12;;;;;;;1.90;1.60;;;15.10;58.80;16.30;99633.00;;;;5009716;28;20191;-46
2023/03/25 07:33:38;;;;;;;2.40;1.60;;;15.20;58.90;16.30;99643.00;;;;5009595;28;20254;-45
2023/03/25 07:36:05;;;;;;;1.47;1.37;;;15.10;58.90;16.30;99629.00;;;;5007899;28;20275;-46
2023/03/25 07:38:31;;;;;;;1.40;1.30;;;15.20;59.10;16.30;99642.00;;;;5009548;28;20670;-46
2023/03/25 07:40:57;;;;;;;1.70;1.27;;;15.20;59.10;16.30;99639.00;;;;5010008;28;20215;-46
2023/03/25 07:43:22;;;;;;;1.47;1.37;;;15.20;59.10;16.30;99640.00;;;;5009363;28;20269;-46
2023/03/25 07:45:48;;;;;;;1.27;1.10;;;15.20;59.10;16.30;99645.00;;;;5009842;28;20179;-46
2023/03/25 07:48:15;;;;;;;1.53;1.43;;;15.20;59.10;16.30;99644.00;;;;5009901;28;20183;-46
2023/03/25 07:50:41;;;;;;;1.90;1.50;;;15.20;59.10;16.30;99643.00;;;;5009402;28;20226;-46
2023/03/25 07:53:07;;;;;;;1.57;1.30;;;15.20;59.10;16.30;99636.00;;;;5007654;28;20669;-46
2023/03/25 07:55:33;;;;;;;1.87;1.33;;;15.20;59.10;16.30;99647.00;;;;5001229;28;20320;-46
2023/03/25 07:58:00;;;;;;;1.03;1.03;;;15.10;59.10;16.30;99643.00;;;;5003576;28;20179;-46
2023/03/25 08:00:27;;;;;;;1.80;1.20;;;15.20;59.10;16.30;99648.00;;;;5001554;28;20279;-47
2023/03/25 08:02:53;;;;;;;1.93;1.37;;;15.20;59.10;16.30;99647.00;;;;5007530;28;20289;-46
2023/03/25 08:05:21;;;;;;;1.53;1.37;;;15.20;59.10;16.30;99645.00;;;;5008850;28;20183;-47
2023/03/25 08:07:50;;;;;;;1.60;1.23;;;15.10;59.10;16.30;99650.00;;;;5009892;28;20201;-45
2023/03/25 08:10:16;;;;;;;2.07;1.50;;;15.20;59.10;16.30;99653.00;;;;5008659;28;20196;-47
2023/03/25 08:12:42;;;;;;;2.30;1.43;;;15.10;59.10;16.30;99663.00;;;;5008807;28;20184;-47
2023/03/25 08:15:10;;;;;;;2.03;1.33;;;15.20;59.20;16.30;99679.00;;;;5008979;28;20175;-47
2023/03/25 08:17:36;;;;;;;1.50;1.30;;;15.20;59.20;16.30;99664.00;;;;5011997;28;20179;-47
2023/03/25 08:20:04;;;;;;;1.97;1.57;;;15.10;59.20;16.30;99679.00;;;;5012737;28;20203;-46
2023/03/25 08:22:30;;;;;;;1.70;1.40;;;15.20;59.30;16.30;99677.00;;;;5012832;28;20215;-47
2023/03/25 08:24:56;;;;;;;1.40;1.13;;;15.20;59.30;16.30;99679.00;;;;5012555;28;20191;-45
2023/03/25 08:27:22;;;;;;;1.43;1.30;;;15.20;59.30;16.30;99679.00;;;;5011853;28;20618;-46
2023/03/25 08:29:56;;;;;;;2.07;1.40;;;15.10;59.40;16.30;99688.00;;;;5011692;28;20203;-45
2023/03/25 08:32:22;;;;;;;1.83;1.43;;;15.10;59.60;16.30;99675.00;;;;5013551;28;20180;-45
2023/03/25 08:34:48;;;;;;;3.60;1.60;;;15.10;59.80;16.30;99689.00;;;;5012353;28;20557;-45
2023/03/25 08:37:14;;;;;;;2.27;1.60;;;15.10;59.80;16.30;99687.00;;;;5012932;28;20179;-46
2023/03/25 08:39:43;;;;;;;3.57;1.70;;;15.10;59.80;16.30;99669.00;;;;5011733;28;20187;-46
2023/03/25 08:42:10;;;;;;;3.00;1.57;;;15.10;59.90;16.30;99677.00;;;;5009250;28;20530;-45
2023/03/25 08:44:36;;;;;;;3.83;1.60;;;15.10;59.90;16.30;99671.00;;;;5011554;28;20184;-46
2023/03/25 08:47:02;;;;;;;1.57;1.47;;;15.10;60.10;16.30;99686.00;;;;5010584;28;20230;-46
2023/03/25 08:49:27;;;;;;;1.87;1.57;;;15.10;60.30;16.30;99676.00;;;;5010590;28;20171;-47
2023/03/25 08:51:53;;;;;;;4.40;1.60;;;15.20;60.50;16.30;99674.00;;;;5013102;28;20262;-46
2023/03/25 08:54:19;;;;;;;4.97;1.47;;;15.20;60.70;16.30;99681.00;;;;5012430;28;20598;-46
2023/03/25 08:56:45;;;;;;;10.27;2.10;;;15.30;60.80;16.30;99670.00;;;;5011987;28;20686;-47
2023/03/25 08:59:11;;;;;;;20.53;2.40;;;15.40;61.10;16.30;99678.00;;;;5012354;28;20172;-46
2023/03/25 09:01:37;;;;;;;9.40;2.10;;;15.50;61.80;16.40;99685.00;;;;5011031;28;20717;-45
2023/03/25 09:04:03;;;;;;;5.77;1.97;;;15.50;61.50;16.40;99685.00;;;;5011191;28;20203;-46
2023/03/25 09:06:28;;;;;;;7.23;1.80;;;15.60;61.50;16.50;99675.00;;;;5011548;28;20178;-46
2023/03/25 09:08:54;;;;;;;5.70;1.60;;;15.70;61.70;16.60;99685.00;;;;5012151;28;20210;-46
2023/03/25 09:11:21;;;;;;;14.73;2.30;;;15.70;61.80;16.60;99683.00;;;;5003365;28;20261;-46
2023/03/25 09:13:46;;;;;;;5.83;1.70;;;15.80;61.90;16.70;99675.00;;;;5005041;28;20180;-46
2023/03/25 09:16:12;;;;;;;2.30;1.60;;;15.90;61.80;16.80;99677.00;;;;5011728;28;20180;-47
2023/03/25 09:18:38;;;;;;;6.87;1.50;;;16.00;61.90;16.80;99660.00;;;;5010344;28;20446;-45
2023/03/25 09:21:04;;;;;;;3.93;1.77;;;16.00;61.90;16.80;99673.00;;;;5010171;28;20683;-46
2023/03/25 09:23:30;;;;;;;7.53;1.83;;;16.00;61.90;16.90;99681.00;;;;5010674;28;20211;-46
2023/03/25 09:26:00;;;;;;;4.77;1.60;;;16.10;61.90;16.90;99686.00;;;;5011108;28;20546;-46
2023/03/25 09:28:26;;;;;;;7.63;2.00;;;16.10;61.90;17.00;99690.00;;;;5012171;28;20183;-46
2023/03/25 09:30:53;;;;;;;4.00;1.70;;;16.10;61.80;17.00;99676.00;;;;5012058;28;20200;-47
2023/03/25 09:33:18;;;;;;;4.20;1.60;;;16.10;61.90;17.00;99685.00;;;;5010806;28;20666;-47
2023/03/25 09:35:45;;;;;;;3.93;1.80;;;16.10;61.90;17.10;99689.00;;;;5011767;28;20179;-46
2023/03/25 09:38:11;;;;;;;3.17;1.63;;;16.20;62.00;17.10;99677.00;;;;5011517;28;20187;-45
2023/03/25 09:40:41;;;;;;;3.90;1.67;;;16.20;61.90;17.10;99668.00;;;;5011575;28;20208;-47
2023/03/25 09:43:28;;;;;;;2.30;1.63;;;16.20;61.90;17.10;99668.00;;;;5010182;28;20192;-47
2023/03/25 09:45:54;;;;;;;3.83;1.57;;;16.20;62.80;17.10;99678.00;;;;5009771;28;20208;-46
2023/03/25 09:48:37;;;;;;;5.13;1.60;;;16.20;61.90;17.10;99685.00;;;;5009993;28;20189;-48
2023/03/25 09:51:27;;;;;;;3.17;1.50;;;16.20;61.90;17.20;99694.00;;;;5011346;28;20219;-47
2023/03/25 09:54:11;;;;;;;3.87;1.73;;;16.20;61.90;17.20;99694.00;;;;5011044;28;20184;-47
2023/03/25 09:56:37;;;;;;;3.67;1.60;;;16.20;61.90;17.20;99679.00;;;;5009941;28;20666;-46
2023/03/25 09:59:06;;;;;;;4.03;1.57;;;16.30;62.10;17.20;99684.00;;;;5011024;28;20179;-45
2023/03/25 10:01:59;;;;;;;3.40;1.60;;;16.20;61.90;17.20;99721.00;;;;5009847;28;20298;-46
2023/03/25 10:04:58;;;;;;;2.07;1.50;;;16.20;62.00;17.20;99683.00;;;;5010176;28;20569;-46
2023/03/25 10:07:49;;;;;;;2.40;1.37;;;16.30;62.10;17.20;99691.00;;;;5009942;28;20596;-45
2023/03/25 10:10:31;;;;;;;2.77;1.73;;;16.20;61.90;17.20;99677.00;;;;5009348;28;20279;-46
2023/03/25 10:13:17;;;;;;;3.23;1.90;;;16.20;61.80;17.20;99688.00;;;;5009510;28;20171;-46
2023/03/25 10:15:56;;;;;;;2.87;1.33;;;16.20;61.80;17.20;99692.00;;;;5009668;28;20179;-46
2023/03/25 10:19:21;;;;;;;2.33;1.20;;;16.20;61.70;17.20;99693.00;;;;5009409;28;20262;-47
2023/03/25 10:22:01;;;;;;;3.00;1.53;;;16.20;61.70;17.10;99693.00;;;;5007025;28;20612;-45
2023/03/25 10:24:44;;;;;;;2.03;1.70;;;16.20;61.70;17.20;99698.00;;;;4996741;28;20583;-46
2023/03/25 10:27:25;;;;;;;2.20;1.70;;;16.20;61.70;17.20;99701.00;;;;5011377;28;20190;-46
2023/03/25 10:30:08;;;;;;;2.43;1.60;;;16.30;61.70;17.20;99691.00;;;;5010127;28;20685;-46
2023/03/25 10:32:41;;;;;;;2.37;1.43;;;16.20;61.70;17.10;99719.00;;;;5009886;28;20180;-46
2023/03/25 10:35:39;;;;;;;2.53;1.70;;;16.20;61.70;17.20;99721.00;;;;5008105;28;20176;-46
2023/03/25 10:38:17;;;;;;;3.53;1.63;;;16.20;61.70;17.20;99715.00;;;;5007785;28;20195;-50
2023/03/25 10:40:48;;;;;;;2.63;1.57;;;16.20;61.60;17.10;99705.00;;;;5011371;28;20199;-46
2023/03/25 10:43:23;;;;;;;2.33;1.63;;;16.20;61.70;17.20;99725.00;;;;5009103;28;20733;-46
2023/03/25 10:45:51;;;;;;;2.00;1.40;;;16.20;61.70;17.10;99696.00;;;;5010328;28;20177;-45
2023/03/25 10:48:21;;;;;;;3.00;1.80;;;16.20;61.70;17.20;99707.00;;;;5009350;28;20171;-46
2023/03/25 10:50:48;;;;;;;1.93;1.40;;;16.20;61.60;17.20;99696.00;;;;5009046;28;20203;-45
2023/03/25 10:53:23;;;;;;;2.63;1.57;;;16.20;61.60;17.20;99699.00;;;;5009174;28;20193;-46
2023/03/25 10:56:04;;;;;;;1.80;1.40;;;16.20;61.60;17.10;99687.00;;;;5008950;28;20193;-46
2023/03/25 10:58:33;;;;;;;1.73;1.50;;;16.20;61.60;17.10;99714.00;;;;5008982;28;20186;-47
2023/03/25 11:01:00;;;;;;;2.67;1.80;;;16.20;61.60;17.10;99699.00;;;;5008881;28;20199;-46
2023/03/25 11:03:33;;;;;;;3.57;1.80;;;16.20;61.60;17.10;99709.00;;;;5008497;28;20253;-46
2023/03/25 11:05:58;;;;;;;1.90;1.67;;;16.20;61.60;17.10;99712.00;;;;5008749;28;20180;-46
2023/03/25 11:08:26;;;;;;;2.40;1.40;;;16.20;61.50;17.10;99702.00;;;;5008765;28;20670;-46
2023/03/25 11:10:56;;;;;;;1.43;1.30;;;16.20;61.60;17.10;99701.00;;;;5010249;28;20581;-45